sensor_id;sensor_type;location;lat;lon;timestamp;pressure;altitude;pressure_sealevel;temperature;humidity
11212;BME280;5663;50.864;12.096;2023-07-28T00:01:50;98349.91;;;19.74;80.86
11212;BME280;5663;50.864;12.096;2023-07-28T00:04:46;98355.19;;;19.74;80.74
11212;BME280;5663;50.864;12.096;2023-07-28T00:07:21;98349.91;;;19.74;80.87
11212;BME280;5663;50.864;12.096;2023-07-28T00:10:20;98357.16;;;19.72;81.20
11212;BME280;5663;50.864;12.096;2023-07-28T00:13:13;98354.34;;;19.73;80.99
11212;BME280;5663;50.864;12.096;2023-07-28T00:15:50;98351.53;;;19.75;80.94
11212;BME280;5663;50.864;12.096;2023-07-28T00:18:21;98344.28;;;19.68;80.95
11212;BME280;5663;50.864;12.096;2023-07-28T00:20:56;98357.50;;;19.77;81.00
11212;BME280;5663;50.864;12.096;2023-07-28T00:23:27;98351.22;;;19.78;81.05
11212;BME280;5663;50.864;12.096;2023-07-28T00:26:01;98348.25;;;19.73;81.48
11212;BME280;5663;50.864;12.096;2023-07-28T00:28:43;98354.88;;;19.77;81.33
11212;BME280;5663;50.864;12.096;2023-07-28T00:31:25;98319.81;;;19.58;81.34
11212;BME280;5663;50.864;12.096;2023-07-28T00:33:58;98343.28;;;19.69;81.75
11212;BME280;5663;50.864;12.096;2023-07-28T00:36:37;98337.19;;;19.69;81.88
11212;BME280;5663;50.864;12.096;2023-07-28T00:39:09;98348.56;;;19.69;81.68
11212;BME280;5663;50.864;12.096;2023-07-28T00:43:39;98327.59;;;19.60;82.00
11212;BME280;5663;50.864;12.096;2023-07-28T00:45:04;98349.91;;;19.74;81.62
11212;BME280;5663;50.864;12.096;2023-07-28T00:47:53;98351.53;;;19.75;81.57
11212;BME280;5663;50.864;12.096;2023-07-28T00:50:40;98353.22;;;19.76;81.81
11212;BME280;5663;50.864;12.096;2023-07-28T00:54:04;98353.53;;;19.73;81.51
11212;BME280;5663;50.864;12.096;2023-07-28T01:07:43;98357.47;;;19.68;81.67
11212;BME280;5663;50.864;12.096;2023-07-28T01:10:38;98344.56;;;19.57;81.41
11212;BME280;5663;50.864;12.096;2023-07-28T01:13:23;98355.66;;;19.69;81.57
11212;BME280;5663;50.864;12.096;2023-07-28T01:16:43;98346.94;;;19.68;81.66
11212;BME280;5663;50.864;12.096;2023-07-28T01:19:59;98340.31;;;19.64;81.96
11212;BME280;5663;50.864;12.096;2023-07-28T01:23:13;98334.38;;;19.62;82.05
11212;BME280;5663;50.864;12.096;2023-07-28T01:26:09;98330.59;;;19.65;81.55
11212;BME280;5663;50.864;12.096;2023-07-28T01:28:48;98321.19;;;19.62;81.56
11212;BME280;5663;50.864;12.096;2023-07-28T01:31:29;98326.13;;;19.65;81.60
11212;BME280;5663;50.864;12.096;2023-07-28T01:34:06;98328.63;;;19.67;81.66
11212;BME280;5663;50.864;12.096;2023-07-28T01:43:06;98251.34;;;19.16;81.69
11212;BME280;5663;50.864;12.096;2023-07-28T01:45:52;98331.72;;;19.62;82.19
11212;BME280;5663;50.864;12.096;2023-07-28T01:48:38;98315.22;;;19.52;82.28
11212;BME280;5663;50.864;12.096;2023-07-28T01:51:08;98325.44;;;19.55;82.19
11212;BME280;5663;50.864;12.096;2023-07-28T01:53:48;98327.59;;;19.60;82.47
11212;BME280;5663;50.864;12.096;2023-07-28T01:56:18;98324.81;;;19.61;82.27
11212;BME280;5663;50.864;12.096;2023-07-28T02:02:36;98322.19;;;19.61;81.93
11212;BME280;5663;50.864;12.096;2023-07-28T02:05:27;98318.69;;;19.61;82.12
11212;BME280;5663;50.864;12.096;2023-07-28T02:08:15;98314.53;;;19.58;82.09
11212;BME280;5663;50.864;12.096;2023-07-28T02:11:05;98314.03;;;19.55;81.79
11212;BME280;5663;50.864;12.096;2023-07-28T02:13:38;98321.19;;;19.62;81.63
11212;BME280;5663;50.864;12.096;2023-07-28T02:16:19;98308.44;;;19.58;81.42
11212;BME280;5663;50.864;12.096;2023-07-28T02:18:53;98300.22;;;19.53;81.50
11212;BME280;5663;50.864;12.096;2023-07-28T02:21:27;98311.47;;;19.63;81.36
11212;BME280;5663;50.864;12.096;2023-07-28T02:23:58;98320.22;;;19.63;81.35
11212;BME280;5663;50.864;12.096;2023-07-28T02:26:36;98289.16;;;19.49;81.48
11212;BME280;5663;50.864;12.096;2023-07-28T02:29:07;98317.56;;;19.63;81.49
11212;BME280;5663;50.864;12.096;2023-07-28T02:31:42;98293.09;;;19.45;81.47
11212;BME280;5663;50.864;12.096;2023-07-28T02:34:20;98315.38;;;19.59;81.48
11212;BME280;5663;50.864;12.096;2023-07-28T02:36:50;98324.81;;;19.61;81.38
11212;BME280;5663;50.864;12.096;2023-07-28T02:39:23;98316.22;;;19.59;81.35
11212;BME280;5663;50.864;12.096;2023-07-28T02:42:01;98309.63;;;19.55;81.48
11212;BME280;5663;50.864;12.096;2023-07-28T02:44:53;98317.88;;;19.60;81.69
11212;BME280;5663;50.864;12.096;2023-07-28T02:47:55;98318.53;;;19.62;81.38
11212;BME280;5663;50.864;12.096;2023-07-28T02:50:46;98317.88;;;19.60;81.44
11212;BME280;5663;50.864;12.096;2023-07-28T02:53:47;98323.13;;;19.60;81.61
11212;BME280;5663;50.864;12.096;2023-07-28T02:56:43;98325.09;;;19.58;82.40
11212;BME280;5663;50.864;12.096;2023-07-28T03:03:03;98336.00;;;19.55;81.78
11212;BME280;5663;50.864;12.096;2023-07-28T03:05:42;98300.97;;;19.37;82.04
11212;BME280;5663;50.864;12.096;2023-07-28T03:15:00;98325.75;;;19.52;81.92
11212;BME280;5663;50.864;12.096;2023-07-28T03:17:48;98331.84;;;19.53;82.15
11212;BME280;5663;50.864;12.096;2023-07-28T03:20:45;98331.50;;;19.48;82.01
11212;BME280;5663;50.864;12.096;2023-07-28T03:23:27;98339.59;;;19.54;81.84
11212;BME280;5663;50.864;12.096;2023-07-28T03:26:07;98341.41;;;19.54;81.96
11212;BME280;5663;50.864;12.096;2023-07-28T03:28:46;98343.22;;;19.53;81.77
11212;BME280;5663;50.864;12.096;2023-07-28T03:31:22;98348.50;;;19.53;81.53
11212;BME280;5663;50.864;12.096;2023-07-28T03:44:52;98353.78;;;19.53;81.41
11212;BME280;5663;50.864;12.096;2023-07-28T03:47:57;98354.09;;;19.50;81.62
11212;BME280;5663;50.864;12.096;2023-07-28T03:50:38;98341.69;;;19.42;81.44
11212;BME280;5663;50.864;12.096;2023-07-28T03:53:13;98336.25;;;19.36;81.78
11212;BME280;5663;50.864;12.096;2023-07-28T03:58:21;98347.34;;;19.48;82.25
11212;BME280;5663;50.864;12.096;2023-07-28T04:00:54;98355.25;;;19.48;82.53
11212;BME280;5663;50.864;12.096;2023-07-28T04:03:29;98358.72;;;19.48;82.56
11212;BME280;5663;50.864;12.096;2023-07-28T04:06:10;98360.53;;;19.48;82.86
11212;BME280;5663;50.864;12.096;2023-07-28T04:08:44;98336.88;;;19.30;82.76
11212;BME280;5663;50.864;12.096;2023-07-28T04:11:36;98370.25;;;19.47;82.95
11212;BME280;5663;50.864;12.096;2023-07-28T04:14:25;98365.81;;;19.48;82.92
11212;BME280;5663;50.864;12.096;2023-07-28T04:17:05;98365.81;;;19.48;83.12
11212;BME280;5663;50.864;12.096;2023-07-28T04:19:49;98366.41;;;19.41;83.53
11212;BME280;5663;50.864;12.096;2023-07-28T04:22:32;98379.59;;;19.41;83.73
11212;BME280;5663;50.864;12.096;2023-07-28T04:25:08;98388.34;;;19.42;83.98
11212;BME280;5663;50.864;12.096;2023-07-28T04:49:50;98384.41;;;19.46;83.27
11212;BME280;5663;50.864;12.096;2023-07-28T04:52:39;98384.09;;;19.49;83.81
11212;BME280;5663;50.864;12.096;2023-07-28T04:55:37;98406.91;;;19.66;83.68
11212;BME280;5663;50.864;12.096;2023-07-28T04:58:15;98405.78;;;19.69;84.01
11212;BME280;5663;50.864;12.096;2023-07-28T05:01:09;98403.97;;;19.69;83.78
11212;BME280;5663;50.864;12.096;2023-07-28T05:04:17;98405.31;;;19.74;84.13
11212;BME280;5663;50.864;12.096;2023-07-28T05:16:12;98392.50;;;19.87;83.79
11212;BME280;5663;50.864;12.096;2023-07-28T05:19:07;98394.13;;;19.88;83.85
11212;BME280;5663;50.864;12.096;2023-07-28T06:28:41;98447.41;;;20.66;83.92
11212;BME280;5663;50.864;12.096;2023-07-28T06:31:18;98456.00;;;20.69;83.83
11212;BME280;5663;50.864;12.096;2023-07-28T06:47:00;98468.53;;;21.15;83.76
11212;BME280;5663;50.864;12.096;2023-07-28T09:18:30;98542.44;;;23.14;69.80
11212;BME280;5663;50.864;12.096;2023-07-28T09:21:37;98536.16;;;23.15;70.04
11212;BME280;5663;50.864;12.096;2023-07-28T09:24:34;98540.72;;;23.21;69.17
11212;BME280;5663;50.864;12.096;2023-07-28T09:27:31;98542.00;;;23.25;69.49
11212;BME280;5663;50.864;12.096;2023-07-28T09:30:29;98546.50;;;23.24;69.42
11212;BME280;5663;50.864;12.096;2023-07-28T10:10:36;98563.78;;;24.17;66.81
11212;BME280;5663;50.864;12.096;2023-07-28T10:13:25;98551.06;;;24.42;68.12
11212;BME280;5663;50.864;12.096;2023-07-28T10:16:41;98552.97;;;24.48;64.73
11212;BME280;5663;50.864;12.096;2023-07-28T16:26:38;60577.69;;;-142.83;100.00
11212;BME280;5663;50.864;12.096;2023-07-28T16:29:27;60577.69;;;-142.83;100.00
11212;BME280;5663;50.864;12.096;2023-07-28T16:32:02;60577.69;;;-142.83;100.00
11212;BME280;5663;50.864;12.096;2023-07-28T16:52:50;60577.69;;;-142.83;100.00
11212;BME280;5663;50.864;12.096;2023-07-28T16:58:57;60577.69;;;-142.83;100.00
11212;BME280;5663;50.864;12.096;2023-07-28T17:12:06;60577.69;;;-142.83;100.00
11212;BME280;5663;50.864;12.096;2023-07-28T17:15:19;60577.69;;;-142.83;100.00
11212;BME280;5663;50.864;12.096;2023-07-28T17:18:36;60577.69;;;-142.83;100.00
11212;BME280;5663;50.864;12.096;2023-07-28T21:48:16;60577.69;;;-142.83;100.00
